Time;durP1;ratioP1;P1;durP2;ratioP2;P2;SDS_P1;SDS_P2;PMS_P1;PMS_P2;Temp;Humidity;BMP_temperature;BMP_pressure;BME280_temperature;BME280_humidity;BME280_pressure;Samples;Min_cycle;Max_cycle;Signal;HPM_P1;HPM_P2
2021/01/10 00:00:15;;;;;;;28.52;11.40;;;3.80;99.90;;;4.30;90.13;101908.38;5050496;28;20923;-75
2021/01/10 00:02:43;;;;;;;28.17;11.05;;;3.80;99.90;;;4.29;90.24;101912.69;5055415;28;20223;-76
2021/01/10 00:05:12;;;;;;;31.00;11.32;;;3.80;99.90;;;4.32;90.25;101909.25;5053220;28;20513;-76
2021/01/10 00:07:38;;;;;;;29.88;11.18;;;3.80;99.90;;;4.34;90.07;101911.00;5046918;28;20671;-76
2021/01/10 00:10:09;;;;;;;27.25;11.13;;;3.80;99.90;;;4.35;89.93;101911.88;5061155;28;20286;-76
2021/01/10 00:12:37;;;;;;;25.88;9.57;;;3.80;99.90;;;4.35;90.07;101904.97;5069588;28;20215;-76
2021/01/10 00:15:06;;;;;;;27.10;10.85;;;3.90;99.90;;;4.36;90.10;101914.47;5066294;28;20731;-76
2021/01/10 00:17:33;;;;;;;29.02;10.73;;;3.90;99.90;;;4.38;90.18;101911.88;5050982;28;20200;-76
2021/01/10 00:19:59;;;;;;;30.23;10.52;;;3.90;99.90;;;4.39;89.98;101918.78;5054380;28;20196;-76
2021/01/10 00:22:25;;;;;;;29.70;10.55;;;3.90;99.90;;;4.39;89.80;101908.44;5050692;28;20220;-77
2021/01/10 00:24:52;;;;;;;26.80;10.67;;;3.90;99.90;;;4.40;89.95;101924.00;5070563;28;20195;-77
2021/01/10 00:27:19;;;;;;;28.05;10.80;;;3.90;99.90;;;4.39;89.74;101918.78;5069018;28;20192;-74
2021/01/10 00:29:50;;;;;;;30.40;10.48;;;3.90;99.90;;;4.36;89.65;101923.94;5066307;28;20200;-76
2021/01/10 00:32:17;;;;;;;30.15;9.85;;;3.90;99.90;;;4.34;89.88;101920.47;5067793;28;20302;-77
2021/01/10 00:34:44;;;;;;;26.25;9.95;;;3.90;99.90;;;4.37;89.96;101925.72;5065148;28;20211;-76
2021/01/10 00:37:13;;;;;;;29.05;10.48;;;3.90;99.90;;;4.36;89.65;101919.66;5050538;28;20729;-77
2021/01/10 00:39:40;;;;;;;26.98;10.23;;;3.80;99.90;;;4.36;89.75;101930.00;5062013;28;20188;-77
2021/01/10 00:42:09;;;;;;;26.88;10.85;;;3.90;99.90;;;4.34;89.60;101931.72;5069320;28;20720;-76
2021/01/10 00:44:37;;;;;;;28.67;11.15;;;3.90;99.90;;;4.33;89.64;101940.34;5051223;28;20208;-76
2021/01/10 00:47:04;;;;;;;27.40;9.82;;;3.80;99.90;;;4.34;89.41;101936.91;5051059;28;20199;-75
2021/01/10 00:49:31;;;;;;;29.42;10.98;;;3.80;99.90;;;4.35;89.61;101928.28;5052039;28;20572;-76
2021/01/10 00:51:58;;;;;;;27.27;10.98;;;3.90;99.90;;;4.35;89.46;101937.78;5048814;28;20690;-76
2021/01/10 00:54:25;;;;;;;25.13;9.95;;;3.90;99.90;;;4.34;89.53;101936.03;5056570;28;20196;-76
2021/01/10 00:56:51;;;;;;;28.83;10.45;;;3.80;99.90;;;4.32;89.72;101936.00;5068474;28;20657;-76
2021/01/10 00:59:18;;;;;;;28.70;10.90;;;3.80;99.90;;;4.32;89.72;101938.59;5069054;28;20215;-76
2021/01/10 01:01:47;;;;;;;26.70;9.50;;;3.80;99.90;;;4.33;89.41;101940.34;5051376;28;20200;-77
2021/01/10 01:04:14;;;;;;;23.60;9.77;;;3.80;99.90;;;4.27;89.56;101937.69;5051141;28;20188;-77
2021/01/10 01:06:40;;;;;;;27.45;9.52;;;3.80;99.90;;;4.24;89.55;101941.97;5067085;28;20192;-77
2021/01/10 01:09:08;;;;;;;25.85;9.88;;;3.80;99.90;;;4.23;89.56;101941.13;5042550;28;20303;-77
2021/01/10 01:11:37;;;;;;;25.48;9.38;;;3.80;99.90;;;4.24;89.47;101944.56;5051818;28;20189;-76
2021/01/10 01:14:05;;;;;;;24.33;9.00;;;3.80;99.90;;;4.26;89.39;101948.94;5066688;28;20192;-76
2021/01/10 01:16:32;;;;;;;25.58;9.52;;;3.80;99.90;;;4.27;89.29;101952.41;5047558;28;20265;-76
2021/01/10 01:18:59;;;;;;;26.95;9.80;;;3.80;99.90;;;4.28;89.25;101955.00;5069251;28;20200;-77
2021/01/10 01:21:26;;;;;;;27.60;10.15;;;3.80;99.90;;;4.28;89.18;101952.41;5067939;28;20207;-77
2021/01/10 01:23:52;;;;;;;27.17;10.10;;;3.80;99.90;;;4.30;89.17;101952.41;5066357;28;20249;-76
2021/01/10 01:26:20;;;;;;;26.50;9.93;;;3.80;99.90;;;4.32;89.37;101959.31;5070108;28;20652;-76
2021/01/10 01:28:48;;;;;;;25.98;9.85;;;3.80;99.90;;;4.32;89.06;101959.31;5063085;28;20253;-76
2021/01/10 01:31:17;;;;;;;22.13;8.60;;;3.80;99.90;;;4.28;88.95;101956.72;5070991;28;20195;-76
2021/01/10 01:33:44;;;;;;;26.27;9.55;;;3.80;99.90;;;4.25;89.01;101964.47;5068244;28;20208;-76
2021/01/10 01:36:13;;;;;;;23.33;9.23;;;3.80;99.90;;;4.25;88.89;101967.94;5033640;28;20235;-76
2021/01/10 01:38:40;;;;;;;26.58;9.93;;;3.80;99.90;;;4.25;88.87;101973.09;5057971;28;20195;-74
2021/01/10 01:41:06;;;;;;;27.55;10.07;;;3.80;99.90;;;4.24;88.70;101963.59;5068250;28;20602;-76
2021/01/10 01:43:34;;;;;;;25.58;9.80;;;3.70;99.90;;;4.25;88.97;101962.75;5068666;28;20216;-76
2021/01/10 01:46:01;;;;;;;27.60;9.93;;;3.80;99.90;;;4.24;88.54;101965.28;5042762;28;20193;-76
2021/01/10 01:48:27;;;;;;;26.52;9.52;;;3.80;99.90;;;4.21;88.63;101965.28;5072866;28;20188;-76
2021/01/10 01:50:57;;;;;;;25.58;10.10;;;3.70;99.90;;;4.19;88.58;101967.84;5048975;28;20196;-76
2021/01/10 01:53:25;;;;;;;28.55;9.52;;;3.70;99.90;;;4.16;88.63;101978.19;5032976;28;20677;-76
2021/01/10 01:55:55;;;;;;;27.83;9.65;;;3.70;99.90;;;4.15;88.61;101967.81;5063737;28;20208;-76
2021/01/10 01:58:23;;;;;;;20.67;8.75;;;3.70;99.90;;;4.15;88.46;101968.69;5065213;28;20238;-76
2021/01/10 02:00:50;;;;;;;25.88;10.13;;;3.70;99.90;;;4.14;88.28;101969.53;5050265;28;20253;-76
2021/01/10 02:03:25;;;;;;;28.88;9.98;;;3.70;99.90;;;4.10;88.29;101965.22;5044849;28;20216;-76
2021/01/10 02:05:58;;;;;;;31.35;9.70;;;3.70;99.90;;;4.14;88.37;101969.53;5069102;28;20240;-76
2021/01/10 02:08:30;;;;;;;28.85;9.70;;;3.70;99.90;;;4.17;87.99;101973.91;5048488;28;20196;-77
2021/01/10 02:11:01;;;;;;;24.70;9.30;;;3.70;99.90;;;4.18;87.92;101973.03;5064298;28;20192;-77
2021/01/10 02:13:33;;;;;;;24.33;8.93;;;3.70;99.90;;;4.20;87.81;101972.19;5049924;28;20300;-76
2021/01/10 02:16:02;;;;;;;23.50;8.32;;;3.70;99.90;;;4.18;87.68;101962.66;5054285;28;20203;-77
2021/01/10 02:18:32;;;;;;;21.50;9.40;;;3.70;99.90;;;4.12;87.42;101971.25;5067283;28;20249;-77
2021/01/10 02:21:04;;;;;;;20.90;8.23;;;3.60;99.90;;;4.11;87.46;101972.09;5050967;28;20807;-76
2021/01/10 02:23:34;;;;;;;23.27;8.77;;;3.60;99.90;;;4.09;87.42;101967.75;5049668;28;20212;-76
2021/01/10 02:26:03;;;;;;;26.45;9.43;;;3.60;99.90;;;4.08;87.31;101973.81;5067463;28;20563;-77
2021/01/10 02:28:31;;;;;;;22.80;8.85;;;3.60;99.90;;;4.08;87.35;101978.97;5068635;28;20195;-76
2021/01/10 02:31:01;;;;;;;25.45;9.35;;;3.60;99.90;;;4.04;87.31;101977.19;5061101;28;20602;-76
2021/01/10 02:33:41;;;;;;;24.95;8.93;;;3.60;99.90;;;3.99;87.25;101977.16;5049567;28;20220;-76
2021/01/10 02:36:19;;;;;;;25.98;8.85;;;3.60;99.90;;;3.98;87.29;101977.16;5063764;28;20759;-76
2021/01/10 02:38:50;;;;;;;26.67;9.38;;;3.50;99.90;;;4.01;87.57;101972.88;5047907;28;20188;-76
2021/01/10 02:41:29;;;;;;;26.80;9.32;;;3.60;99.90;;;4.04;87.37;101978.06;5061117;28;20205;-77
2021/01/10 02:44:06;;;;;;;25.42;9.45;;;3.60;99.90;;;4.01;87.22;101969.41;5067808;28;20208;-72
2021/01/10 02:46:36;;;;;;;26.40;9.38;;;3.50;99.90;;;4.00;87.28;101972.88;5043866;28;20285;-76
2021/01/10 02:49:03;;;;;;;29.50;9.98;;;3.60;99.90;;;4.04;87.69;101979.78;5066512;28;20200;-75
2021/01/10 02:51:30;;;;;;;25.23;9.15;;;3.60;99.90;;;4.05;87.64;101974.66;5051483;28;20192;-76
2021/01/10 02:53:56;;;;;;;24.30;9.35;;;3.60;99.90;;;4.07;87.64;101980.69;5052282;28;20223;-77
2021/01/10 02:56:23;;;;;;;26.13;9.07;;;3.60;99.90;;;4.08;87.38;101969.50;5069506;28;20217;-76
2021/01/10 02:58:55;;;;;;;28.17;8.90;;;3.60;99.90;;;4.08;87.17;101976.38;5051060;28;20189;-76
2021/01/10 03:01:24;;;;;;;24.33;9.57;;;3.60;99.90;;;4.07;87.46;101980.69;5069228;28;20207;-77
2021/01/10 03:03:53;;;;;;;24.92;8.90;;;3.60;99.90;;;4.08;87.41;101976.38;5053827;28;20353;-77
2021/01/10 03:06:21;;;;;;;25.30;9.10;;;3.60;99.90;;;4.07;86.99;101980.69;5070112;28;20696;-76
2021/01/10 03:08:48;;;;;;;22.38;8.52;;;3.60;99.90;;;4.06;87.15;101981.56;5048009;28;20249;-76
2021/01/10 03:11:15;;;;;;;24.20;8.82;;;3.60;99.90;;;4.08;87.57;101979.84;5065459;28;20200;-76
2021/01/10 03:13:42;;;;;;;22.17;8.00;;;3.60;99.90;;;4.11;87.00;101985.06;5070935;28;20226;-77
2021/01/10 03:16:09;;;;;;;22.33;7.97;;;3.60;99.90;;;4.09;86.83;101986.75;5069383;28;20672;-77
2021/01/10 03:18:35;;;;;;;23.15;7.68;;;3.60;99.90;;;4.03;86.88;101986.72;5068150;28;20583;-77
2021/01/10 03:21:02;;;;;;;19.20;6.90;;;3.60;99.90;;;4.00;86.53;101986.69;5053449;28;20188;-74
2021/01/10 03:23:28;;;;;;;27.85;8.02;;;3.60;99.90;;;4.01;86.61;101987.53;5065854;28;20277;-76
2021/01/10 03:25:54;;;;;;;21.05;8.15;;;3.50;99.90;;;4.00;86.25;101980.63;5062057;28;20200;-77
2021/01/10 03:28:20;;;;;;;22.58;7.85;;;3.50;99.90;;;4.02;86.14;101989.28;5069513;28;20215;-76
2021/01/10 03:30:47;;;;;;;21.70;7.83;;;3.50;99.90;;;4.00;85.77;101996.16;5052894;28;20195;-76
2021/01/10 03:33:14;;;;;;;21.45;7.57;;;3.50;99.90;;;3.97;85.60;101991.81;5069046;28;20723;-76
2021/01/10 03:35:40;;;;;;;24.20;8.45;;;3.50;99.90;;;3.97;85.36;101990.97;5050504;28;20207;-76
2021/01/10 03:38:07;;;;;;;25.08;8.70;;;3.50;99.90;;;4.01;85.30;101987.53;5065493;28;20196;-77
2021/01/10 03:40:34;;;;;;;19.98;7.25;;;3.50;99.90;;;3.98;85.43;101990.09;5050417;28;20191;-76
2021/01/10 03:43:01;;;;;;;22.00;8.15;;;3.50;99.90;;;3.96;85.33;101992.69;5063938;28;20231;-77
2021/01/10 03:45:28;;;;;;;24.53;8.57;;;3.50;99.90;;;3.98;85.51;101997.88;5067283;28;20199;-76
2021/01/10 03:47:55;;;;;;;22.57;8.30;;;3.50;99.90;;;4.00;85.29;102001.34;5049816;28;20599;-76
2021/01/10 03:50:21;;;;;;;20.73;7.10;;;3.50;99.90;;;3.98;85.05;101998.75;5050754;28;20277;-76
2021/01/10 03:52:48;;;;;;;20.83;7.82;;;3.50;99.90;;;3.95;84.84;102001.31;5069909;28;20551;-76
2021/01/10 03:55:14;;;;;;;17.65;6.78;;;3.50;99.90;;;3.93;84.38;101994.38;5069047;28;20212;-76
2021/01/10 03:57:40;;;;;;;19.52;6.93;;;3.40;99.90;;;3.91;84.36;102002.13;5067355;28;20196;-76
2021/01/10 04:00:10;;;;;;;21.38;7.47;;;3.40;99.90;;;3.92;84.37;101998.66;5054916;28;20192;-76
2021/01/10 04:02:37;;;;;;;22.00;7.15;;;3.40;99.90;;;3.91;83.78;101990.88;5069100;28;20329;-76
2021/01/10 04:05:06;;;;;;;19.08;7.07;;;3.40;99.90;;;3.88;83.99;101991.75;5062505;28;20184;-77
2021/01/10 04:07:33;;;;;;;17.48;6.35;;;3.40;99.90;;;3.86;83.75;101993.44;5072614;28;20196;-76
2021/01/10 04:09:59;;;;;;;16.90;6.50;;;3.40;99.90;;;3.88;83.56;101993.44;5058327;28;20200;-76
2021/01/10 04:12:25;;;;;;;18.47;6.73;;;3.40;99.90;;;3.84;83.65;101998.59;5068324;28;20212;-76
2021/01/10 04:14:55;;;;;;;21.88;7.30;;;3.40;99.90;;;3.80;83.43;101994.22;5061747;28;20249;-76
2021/01/10 04:17:22;;;;;;;20.97;7.00;;;3.40;99.90;;;3.81;83.33;101987.34;5055125;28;20687;-76
2021/01/10 04:19:49;;;;;;;19.92;6.95;;;3.30;99.90;;;3.84;83.54;101984.78;5070082;28;20652;-76
2021/01/10 04:22:16;;;;;;;22.30;7.57;;;3.40;99.90;;;3.88;83.49;101977.91;5052894;28;20220;-76
2021/01/10 04:24:42;;;;;;;17.67;6.45;;;3.40;99.90;;;3.90;83.48;101977.09;5052429;28;20720;-76
2021/01/10 04:27:08;;;;;;;21.85;8.32;;;3.40;99.90;;;3.91;83.75;101972.75;5047887;28;20195;-76
2021/01/10 04:29:34;;;;;;;21.92;8.35;;;3.40;99.90;;;3.94;83.34;101971.06;5070578;28;20257;-77
2021/01/10 04:32:01;;;;;;;19.73;6.95;;;3.40;99.90;;;3.97;83.43;101976.28;5044714;28;20216;-76
2021/01/10 04:34:27;;;;;;;19.10;7.15;;;3.40;99.90;;;3.98;83.23;101961.63;5070135;28;20190;-76
2021/01/10 04:36:53;;;;;;;18.02;7.07;;;3.40;99.90;;;3.97;83.11;101976.28;5068646;28;20211;-76
2021/01/10 04:39:20;;;;;;;23.17;7.13;;;3.40;99.90;;;3.88;82.79;101965.84;5063826;28;20204;-76
2021/01/10 04:41:47;;;;;;;16.70;6.32;;;3.40;99.90;;;3.79;83.04;101964.03;5048506;28;20197;-77
2021/01/10 04:44:14;;;;;;;21.27;7.07;;;3.30;99.90;;;3.73;82.98;101968.28;5064720;28;20196;-76
2021/01/10 04:46:41;;;;;;;21.97;7.43;;;3.30;99.90;;;3.68;83.00;101972.53;5049690;28;20193;-76
2021/01/10 04:49:09;;;;;;;21.92;7.57;;;3.20;99.90;;;3.60;82.99;101969.00;5062040;28;20544;-77
2021/01/10 04:51:40;;;;;;;21.48;7.45;;;3.20;99.90;;;3.55;83.23;101973.28;5051061;28;20200;-76
2021/01/10 04:54:08;;;;;;;19.35;6.72;;;3.20;99.90;;;3.54;83.30;101971.50;5067660;28;20235;-76
2021/01/10 04:56:36;;;;;;;20.50;7.03;;;3.10;99.90;;;3.55;83.21;101965.50;5048629;28;20332;-76
2021/01/10 04:59:05;;;;;;;19.33;7.72;;;3.10;99.90;;;3.56;83.24;101975.00;5050243;28;20868;-75
2021/01/10 05:01:36;;;;;;;17.13;6.30;;;3.10;99.90;;;3.53;83.20;101964.63;5049890;28;20193;-77
2021/01/10 05:04:04;;;;;;;17.40;6.57;;;3.10;99.90;;;3.52;83.35;101968.03;5066016;28;20227;-75
2021/01/10 05:06:35;;;;;;;17.77;6.77;;;3.10;99.90;;;3.53;83.02;101967.19;5049856;28;20199;-77
2021/01/10 05:09:04;;;;;;;17.45;6.45;;;3.00;99.90;;;3.54;83.03;101968.94;5065489;28;20196;-76
2021/01/10 05:11:30;;;;;;;19.02;6.22;;;3.00;99.90;;;3.51;82.73;101974.06;5058023;28;20253;-76
2021/01/10 05:13:57;;;;;;;19.10;6.78;;;3.00;99.90;;;3.48;82.66;101967.13;5065917;28;20204;-76
2021/01/10 05:16:24;;;;;;;20.07;6.43;;;3.00;99.90;;;3.46;82.67;101970.56;5067778;28;20337;-77
2021/01/10 05:18:52;;;;;;;18.90;6.60;;;2.90;99.90;;;3.42;82.48;101964.47;5049374;28;20200;-76
2021/01/10 05:21:20;;;;;;;16.33;6.20;;;2.90;99.90;;;3.41;82.26;101967.94;5050076;28;20205;-77
2021/01/10 05:23:50;;;;;;;18.93;6.37;;;2.90;99.90;;;3.43;82.45;101980.88;5065519;28;20220;-76
2021/01/10 05:26:16;;;;;;;16.50;6.07;;;2.90;99.90;;;3.45;82.08;101967.09;5048005;28;20289;-76
2021/01/10 05:28:45;;;;;;;16.23;5.67;;;2.90;99.90;;;3.50;82.14;101962.00;5050600;28;20553;-76
2021/01/10 05:31:13;;;;;;;17.90;5.80;;;2.90;99.90;;;3.49;82.07;101966.28;5065284;28;20771;-76
2021/01/10 05:33:50;;;;;;;17.23;6.40;;;2.90;99.90;;;3.45;81.94;101964.50;5046758;28;20219;-77
2021/01/10 05:36:29;;;;;;;18.50;6.60;;;2.90;99.90;;;3.44;82.14;101970.56;5057354;28;20216;-77
2021/01/10 05:38:57;;;;;;;18.50;6.43;;;2.90;99.90;;;3.41;81.81;101972.22;5056561;28;20196;-77
2021/01/10 05:41:25;;;;;;;16.40;5.70;;;2.90;99.90;;;3.36;81.95;101972.19;5066336;28;20200;-77
2021/01/10 05:44:01;;;;;;;17.70;5.90;;;2.90;99.90;;;3.33;82.13;101968.69;5048178;28;20714;-77
2021/01/10 05:46:31;;;;;;;16.40;6.03;;;2.90;99.90;;;3.31;82.36;101975.56;5052130;28;20192;-77
2021/01/10 05:49:01;;;;;;;18.30;6.33;;;2.90;99.90;;;3.33;82.61;101973.84;5049428;28;20732;-77
2021/01/10 05:51:30;;;;;;;17.03;6.33;;;2.90;99.90;;;3.37;82.44;101973.03;5055618;28;20207;-76
2021/01/10 05:53:57;;;;;;;18.37;6.30;;;2.90;99.90;;;3.41;82.58;101969.66;5049295;28;20218;-77
2021/01/10 05:56:23;;;;;;;17.40;6.33;;;2.90;99.90;;;3.40;82.58;101962.75;5053296;28;20230;-76
2021/01/10 05:58:57;;;;;;;16.20;6.23;;;2.90;99.90;;;3.43;82.54;101965.38;5060268;28;20192;-75
2021/01/10 06:01:25;;;;;;;18.65;6.35;;;2.90;99.90;;;3.49;82.71;101970.59;5066782;28;20192;-76
2021/01/10 06:03:53;;;;;;;15.82;6.07;;;3.00;99.90;;;3.54;82.47;101969.81;5066332;28;20208;-76
2021/01/10 06:06:20;;;;;;;16.10;6.47;;;3.00;99.90;;;3.56;81.92;101975.88;5064651;28;20199;-77
2021/01/10 06:08:46;;;;;;;19.27;6.63;;;3.10;99.90;;;3.53;82.20;101974.97;5049843;28;20192;-77
2021/01/10 06:11:21;;;;;;;17.00;5.83;;;3.00;99.90;;;3.53;81.99;101973.22;5065658;28;20219;-77
2021/01/10 06:13:54;;;;;;;20.55;6.57;;;3.00;99.90;;;3.53;81.76;101967.19;5050956;28;20586;-75
2021/01/10 06:16:23;;;;;;;17.97;5.97;;;3.00;99.90;;;3.50;81.62;101977.53;5061535;28;20216;-76
2021/01/10 06:18:55;;;;;;;15.57;5.97;;;3.00;99.90;;;3.46;81.26;101986.97;5068800;28;20657;-77
2021/01/10 06:21:25;;;;;;;15.97;5.70;;;3.00;99.90;;;3.44;81.35;101982.59;5067478;28;20711;-77
2021/01/10 06:23:58;;;;;;;16.17;5.80;;;3.00;99.90;;;3.42;81.13;101989.47;5050692;28;20803;-77
2021/01/10 06:26:27;;;;;;;16.00;5.50;;;2.90;99.90;;;3.37;80.84;101989.44;5063992;28;20652;-77
2021/01/10 06:29:00;;;;;;;16.13;5.82;;;2.90;99.90;;;3.34;80.73;101988.50;5049994;28;20214;-76
2021/01/10 06:31:30;;;;;;;14.57;5.07;;;2.90;99.90;;;3.28;80.59;101993.63;5052888;28;20608;-77
2021/01/10 06:34:04;;;;;;;16.20;5.93;;;2.80;99.90;;;3.23;80.24;101990.97;5070713;28;20711;-77
2021/01/10 06:36:34;;;;;;;14.80;4.90;;;2.80;99.90;;;3.19;80.34;101996.06;5069925;28;20215;-77
2021/01/10 06:39:10;;;;;;;16.53;5.87;;;2.70;99.90;;;3.15;80.19;101999.50;5054958;28;20189;-75
2021/01/10 06:42:07;;;;;;;13.93;5.27;;;2.70;99.90;;;3.12;80.04;101994.25;5051692;28;20206;-76
2021/01/10 06:44:37;;;;;;;16.63;5.77;;;2.70;99.90;;;3.11;80.40;102001.16;5054040;28;20261;-76
2021/01/10 06:47:04;;;;;;;16.73;5.50;;;2.70;99.90;;;3.11;80.30;101998.56;5070674;28;20547;-76
2021/01/10 06:49:32;;;;;;;15.05;5.72;;;2.70;99.90;;;3.08;80.48;101998.50;5066856;28;20204;-76
2021/01/10 06:52:02;;;;;;;13.73;4.83;;;2.70;99.90;;;3.07;80.46;102003.66;5067163;28;20274;-76
2021/01/10 06:54:28;;;;;;;17.00;5.37;;;2.60;99.90;;;3.04;80.52;101996.75;5065977;28;20629;-76
2021/01/10 06:56:56;;;;;;;12.83;5.10;;;2.60;99.90;;;3.10;80.70;102001.16;5072457;28;20652;-76
2021/01/10 06:59:24;;;;;;;14.97;5.33;;;2.70;99.90;;;3.11;80.66;102002.88;5048909;28;20232;-76
2021/01/10 07:02:01;;;;;;;14.20;5.00;;;2.70;99.90;;;3.11;80.54;102014.09;5052755;28;20219;-76
2021/01/10 07:04:57;;;;;;;17.13;5.50;;;2.60;99.90;;;3.07;80.54;102004.53;5068782;28;20264;-76
2021/01/10 07:07:35;;;;;;;16.60;5.40;;;2.60;99.90;;;3.08;80.66;102019.19;5063677;28;20200;-77
2021/01/10 07:10:05;;;;;;;16.73;5.13;;;2.60;99.90;;;3.05;80.38;102015.72;5047046;28;20200;-76
2021/01/10 07:12:31;;;;;;;14.10;4.87;;;2.60;99.90;;;3.06;80.32;102014.88;5075010;28;20215;-76
2021/01/10 07:15:24;;;;;;;14.73;5.43;;;2.60;99.90;;;3.04;80.42;102021.72;5057553;28;20207;-76
2021/01/10 07:18:10;;;;;;;15.37;5.23;;;2.60;99.90;;;3.02;80.16;102013.06;5054635;28;20188;-77
2021/01/10 07:20:44;;;;;;;14.73;4.90;;;2.60;99.90;;;3.03;80.23;102023.44;5055727;28;20197;-76
2021/01/10 07:23:30;;;;;;;15.17;5.20;;;2.60;99.90;;;2.98;80.26;102025.09;5071825;28;20212;-76
2021/01/10 07:25:58;;;;;;;14.10;5.10;;;2.50;99.90;;;2.94;80.20;102023.31;5073736;28;20668;-76
2021/01/10 07:28:40;;;;;;;16.63;5.53;;;2.50;99.90;;;2.98;80.46;102032.00;5072155;28;20184;-76
2021/01/10 07:31:20;;;;;;;15.17;5.60;;;2.50;99.90;;;3.00;80.23;102030.31;5072535;28;20184;-76
2021/01/10 07:34:10;;;;;;;14.77;5.00;;;2.50;99.90;;;3.01;79.90;102032.91;5065984;28;20212;-76
2021/01/10 07:36:53;;;;;;;15.63;5.43;;;2.60;99.90;;;2.97;80.18;102031.09;5067928;28;20212;-76
2021/01/10 07:39:23;;;;;;;13.20;4.63;;;2.50;99.90;;;2.91;80.12;102046.53;5066607;28;20195;-76
2021/01/10 07:41:49;;;;;;;15.05;5.15;;;2.50;99.90;;;2.94;80.63;102046.56;5069342;28;20195;-76
2021/01/10 07:44:18;;;;;;;18.03;6.83;;;2.50;99.90;;;2.98;80.41;102045.75;5067563;28;20184;-76
2021/01/10 07:47:02;;;;;;;15.73;5.43;;;2.50;99.90;;;3.01;80.46;102040.66;5067674;28;20687;-77
2021/01/10 07:49:49;;;;;;;18.77;6.30;;;2.60;99.90;;;3.01;80.24;102039.78;5053059;28;20208;-77
2021/01/10 07:52:37;;;;;;;15.93;5.70;;;2.60;99.90;;;2.99;80.19;102051.81;5068586;28;20228;-76
2021/01/10 07:55:05;;;;;;;15.90;5.00;;;2.60;99.90;;;3.00;80.24;102057.00;5057513;28;20196;-76
2021/01/10 07:57:34;;;;;;;15.40;5.07;;;2.60;99.90;;;2.97;80.31;102067.28;5069239;28;20223;-77
2021/01/10 08:00:13;;;;;;;15.00;5.47;;;2.60;99.90;;;2.93;80.55;102064.66;5070849;28;20188;-76
2021/01/10 08:03:02;;;;;;;16.97;5.00;;;2.50;99.90;;;2.90;80.30;102062.03;5067424;28;20200;-74
2021/01/10 08:05:34;;;;;;;14.33;5.37;;;2.50;99.90;;;2.89;80.42;102068.03;5069279;28;20184;-77
2021/01/10 08:08:05;;;;;;;13.67;4.87;;;2.50;99.90;;;2.88;80.60;102064.56;5052918;28;20202;-77
2021/01/10 08:10:46;;;;;;;15.50;5.70;;;2.50;99.90;;;2.84;80.51;102064.50;5059805;28;20279;-77
2021/01/10 08:13:36;;;;;;;17.10;5.40;;;2.50;99.90;;;2.82;80.94;102072.22;5065978;28;20212;-76
2021/01/10 08:16:06;;;;;;;17.30;5.83;;;2.50;99.90;;;2.80;80.96;102062.72;5071291;28;20204;-74
2021/01/10 08:18:36;;;;;;;18.53;6.37;;;2.50;99.90;;;2.83;81.33;102073.09;5065932;28;20188;-75
2021/01/10 08:21:06;;;;;;;18.70;6.47;;;2.50;99.90;;;2.87;81.46;102072.28;5068519;28;20199;-75
2021/01/10 08:23:33;;;;;;;18.17;6.37;;;2.50;99.90;;;2.90;81.07;102077.53;5049454;28;20212;-77
2021/01/10 08:26:13;;;;;;;15.40;5.17;;;2.50;99.90;;;2.96;81.24;102085.38;5071451;28;20184;-76
2021/01/10 08:28:41;;;;;;;17.30;6.47;;;2.50;99.90;;;2.99;81.34;102077.66;5066286;28;20188;-78
2021/01/10 08:31:11;;;;;;;14.43;5.10;;;2.60;99.90;;;2.94;81.21;102087.94;5066659;28;20197;-77
2021/01/10 08:33:39;;;;;;;18.00;5.40;;;2.50;99.90;;;2.84;81.30;102086.03;5054337;28;20307;-77
2021/01/10 08:36:12;;;;;;;11.53;4.03;;;2.50;99.90;;;2.73;81.48;102082.41;5070628;28;20223;-77
2021/01/10 08:38:51;;;;;;;15.40;5.10;;;2.40;99.90;;;2.68;81.52;102089.22;5068475;28;20210;-76
2021/01/10 08:41:26;;;;;;;14.60;4.87;;;2.40;99.90;;;2.67;81.40;102087.47;5049422;28;20196;-76
2021/01/10 08:43:56;;;;;;;14.67;5.03;;;2.40;99.90;;;2.72;81.57;102084.97;5064487;28;20227;-76
2021/01/10 08:46:24;;;;;;;13.50;4.73;;;2.40;99.90;;;2.74;81.61;102086.75;5061058;28;20193;-76
2021/01/10 08:48:50;;;;;;;13.10;4.80;;;2.40;99.90;;;2.76;81.00;102072.13;5049592;28;20184;-76
2021/01/10 08:51:34;;;;;;;16.80;5.40;;;2.40;99.90;;;2.77;81.17;102084.19;5047449;28;20239;-76
2021/01/10 08:54:07;;;;;;;16.63;5.60;;;2.40;99.90;;;2.76;81.25;102091.94;5050234;28;20230;-77
2021/01/10 08:56:35;;;;;;;16.90;5.03;;;2.40;99.90;;;2.72;81.28;102092.72;5068419;28;20211;-76
2021/01/10 08:59:02;;;;;;;18.83;5.07;;;2.40;99.90;;;2.67;81.33;102081.44;5055023;28;20622;-76
2021/01/10 09:01:29;;;;;;;12.87;4.73;;;2.40;99.90;;;2.68;81.64;102096.13;5050488;28;20189;-75
2021/01/10 09:04:00;;;;;;;12.63;4.37;;;2.40;99.90;;;2.68;81.73;102089.22;5067001;28;20220;-76
2021/01/10 09:06:38;;;;;;;17.37;5.40;;;2.30;99.90;;;2.64;81.73;102094.31;5068919;28;20189;-75
2021/01/10 09:09:18;;;;;;;13.77;4.60;;;2.30;99.90;;;2.65;81.65;102096.06;5069447;28;20559;-75
2021/01/10 09:11:53;;;;;;;15.93;5.43;;;2.30;99.90;;;2.58;81.47;102096.78;5067651;28;20668;-75
2021/01/10 09:14:25;;;;;;;13.70;5.13;;;2.20;99.90;;;2.55;81.73;102090.72;5076365;28;20583;-77
2021/01/10 09:16:53;;;;;;;13.83;4.83;;;2.30;99.90;;;2.58;81.56;102099.38;5070795;28;20208;-76
2021/01/10 09:19:23;;;;;;;14.57;4.87;;;2.30;99.90;;;2.57;81.36;102095.91;5074497;28;20211;-75
2021/01/10 09:21:50;;;;;;;14.87;4.90;;;2.30;99.90;;;2.63;81.22;102096.00;5058843;28;20196;-76
2021/01/10 09:24:18;;;;;;;17.47;5.97;;;2.30;99.90;;;2.70;81.11;102100.44;5073913;28;20184;-76
2021/01/10 09:26:44;;;;;;;14.63;5.73;;;2.30;99.90;;;2.75;80.65;102085.03;5066864;28;20203;-76
2021/01/10 09:29:18;;;;;;;16.40;5.87;;;2.40;99.90;;;2.83;80.43;102091.19;5073342;28;20598;-76
2021/01/10 09:31:47;;;;;;;16.67;5.90;;;2.50;99.90;;;2.84;80.14;102090.34;5073249;28;20199;-75
2021/01/10 09:34:15;;;;;;;14.40;5.43;;;2.50;99.90;;;2.85;80.04;102087.78;5066679;28;20196;-76
2021/01/10 09:36:42;;;;;;;19.27;6.53;;;2.60;99.90;;;2.91;79.95;102087.00;5063275;28;20215;-73
2021/01/10 09:39:09;;;;;;;18.83;6.50;;;2.60;99.90;;;2.97;79.95;102084.50;5066628;28;20195;-75
2021/01/10 09:41:53;;;;;;;15.33;5.90;;;2.70;99.90;;;3.01;79.55;102089.78;5056155;28;20211;-76
2021/01/10 09:44:19;;;;;;;13.73;5.57;;;2.80;99.90;;;2.98;79.42;102088.84;5051587;28;20195;-76
2021/01/10 09:46:53;;;;;;;16.40;6.33;;;2.70;99.90;;;2.97;79.61;102087.09;5064384;28;20199;-76
2021/01/10 09:49:22;;;;;;;15.20;5.87;;;2.80;99.90;;;3.02;79.52;102090.63;5051313;28;20184;-76
2021/01/10 09:51:54;;;;;;;15.30;6.10;;;2.80;99.90;;;3.02;79.25;102088.03;5064641;28;20192;-76
2021/01/10 09:54:22;;;;;;;15.40;5.43;;;2.80;99.90;;;3.02;78.85;102075.09;5061987;28;20197;-76
2021/01/10 09:56:50;;;;;;;14.70;5.97;;;2.90;99.90;;;3.05;79.04;102083.78;5062579;28;20212;-77
2021/01/10 09:59:41;;;;;;;15.77;5.50;;;2.80;99.90;;;3.05;78.62;102088.09;5061599;28;20234;-76
2021/01/10 10:02:17;;;;;;;15.65;5.82;;;2.80;99.90;;;3.13;79.19;102084.75;5048161;28;20207;-76
2021/01/10 10:04:46;;;;;;;16.43;5.90;;;2.90;99.90;;;3.34;80.16;102087.66;5041699;28;20184;-76
2021/01/10 10:07:15;;;;;;;16.73;6.33;;;3.00;99.90;;;3.47;80.40;102086.09;5065879;28;20633;-77
2021/01/10 10:09:51;;;;;;;16.50;5.67;;;3.00;99.90;;;3.53;80.65;102083.63;5050331;28;20207;-77
2021/01/10 10:12:18;;;;;;;16.33;6.57;;;3.10;99.90;;;3.58;80.42;102081.97;5062934;28;20227;-77
2021/01/10 10:14:54;;;;;;;14.77;5.80;;;3.10;99.90;;;3.59;80.14;102081.97;5045302;28;20211;-77
2021/01/10 10:17:22;;;;;;;18.77;6.70;;;3.20;99.90;;;3.65;79.64;102076.03;5052798;28;20220;-79
2021/01/10 10:19:49;;;;;;;17.40;7.03;;;3.20;99.90;;;3.76;79.71;102074.41;5051170;28;20191;-76
2021/01/10 10:22:24;;;;;;;16.93;6.07;;;3.30;99.90;;;3.91;79.91;102073.72;5046547;28;20216;-77
2021/01/10 10:24:52;;;;;;;18.43;6.90;;;3.40;99.90;;;4.03;79.70;102079.91;5059165;28;20210;-78
2021/01/10 10:27:18;;;;;;;16.83;6.20;;;3.50;99.90;;;4.16;80.09;102070.53;5059856;28;20257;-76
2021/01/10 10:29:44;;;;;;;16.17;6.13;;;3.70;99.90;;;4.12;79.54;102068.78;5036550;28;20193;-77